createdAt,value
2018-01-21T00:00:50.225Z,997.2
2018-01-21T00:01:52.919Z,997.2
2018-01-21T00:02:55.323Z,997.2
2018-01-21T00:03:57.745Z,997.3
2018-01-21T00:05:00.140Z,997.3
2018-01-21T00:06:02.550Z,997.3
2018-01-21T00:07:04.959Z,997.3
2018-01-21T00:08:07.371Z,997.3
2018-01-21T00:09:09.783Z,997.3
2018-01-21T00:10:12.760Z,997.3
2018-01-21T00:11:15.167Z,997.3
2018-01-21T00:12:17.587Z,997.2
2018-01-21T00:13:19.997Z,997.3
2018-01-21T00:14:22.403Z,997.3
2018-01-21T00:15:24.813Z,997.3
2018-01-21T00:16:27.215Z,997.3
2018-01-21T00:17:29.621Z,997.3
2018-01-21T00:18:32.038Z,997.3
2018-01-21T00:19:34.443Z,997.3
2018-01-21T00:20:36.861Z,997.3
2018-01-21T00:21:39.260Z,997.4
2018-01-21T00:22:41.677Z,997.4
2018-01-21T00:23:44.368Z,997.4
2018-01-21T00:24:46.775Z,997.4
2018-01-21T00:25:49.176Z,997.4
2018-01-21T00:26:51.590Z,997.4
2018-01-21T00:27:54.005Z,997.4
2018-01-21T00:28:56.425Z,997.4
2018-01-21T00:29:58.834Z,997.4
2018-01-21T00:31:01.546Z,997.5
2018-01-21T00:32:03.953Z,997.5
2018-01-21T00:33:06.364Z,997.5
2018-01-21T00:34:08.772Z,997.5
2018-01-21T00:35:11.182Z,997.5
2018-01-21T00:36:13.589Z,997.5
2018-01-21T00:37:15.993Z,997.6
2018-01-21T00:38:18.406Z,997.6
2018-01-21T00:39:20.811Z,997.6
2018-01-21T00:40:23.517Z,997.6
2018-01-21T00:41:25.926Z,997.6
2018-01-21T00:42:28.327Z,997.6
2018-01-21T00:43:30.737Z,997.7
2018-01-21T00:44:33.149Z,997.6
2018-01-21T00:45:35.564Z,997.7
2018-01-21T00:46:37.982Z,997.7
2018-01-21T00:47:40.390Z,997.7
2018-01-21T00:48:42.805Z,997.7
2018-01-21T00:49:45.213Z,997.8
2018-01-21T00:50:47.614Z,997.8
2018-01-21T00:51:50.016Z,997.8
2018-01-21T00:52:52.422Z,997.8
2018-01-21T00:53:54.820Z,997.8
2018-01-21T00:54:57.237Z,997.8
2018-01-21T00:55:59.639Z,997.9
2018-01-21T00:57:02.336Z,997.8
2018-01-21T00:58:04.750Z,997.9
2018-01-21T00:59:07.151Z,997.9
2018-01-21T01:00:09.560Z,997.9
2018-01-21T01:01:12.259Z,997.9
2018-01-21T01:02:14.656Z,998
2018-01-21T01:03:17.080Z,998
2018-01-21T01:04:19.489Z,998
2018-01-21T01:05:21.900Z,998
2018-01-21T01:06:24.315Z,998
2018-01-21T01:07:26.728Z,998
2018-01-21T01:08:29.137Z,998
2018-01-21T01:09:31.830Z,998.1
2018-01-21T01:10:34.511Z,998.1
2018-01-21T01:11:36.915Z,998.1
2018-01-21T01:12:39.329Z,998
2018-01-21T01:13:41.739Z,998.1
2018-01-21T01:14:44.150Z,998.1
2018-01-21T01:15:46.559Z,998.1
2018-01-21T01:16:48.958Z,998.1
2018-01-21T01:17:51.376Z,998.2
2018-01-21T01:18:53.788Z,998.2
2018-01-21T01:19:56.188Z,998.2
2018-01-21T01:20:58.591Z,998.2
2018-01-21T01:22:01.568Z,998.2
2018-01-21T01:23:03.976Z,998.3
2018-01-21T01:24:06.686Z,998.3
2018-01-21T01:25:09.084Z,998.4
2018-01-21T01:26:11.483Z,998.4
2018-01-21T01:27:13.906Z,998.3
2018-01-21T01:28:16.306Z,998.4
2018-01-21T01:29:19.001Z,998.4
2018-01-21T01:30:21.412Z,998.4
2018-01-21T01:31:23.826Z,998.4
2018-01-21T01:32:26.238Z,998.5
2018-01-21T01:33:28.648Z,998.4
2018-01-21T01:34:31.064Z,998.4
2018-01-21T01:35:33.481Z,998.5
2018-01-21T01:36:35.906Z,998.5
2018-01-21T01:37:38.582Z,998.5
2018-01-21T01:38:40.993Z,998.5
2018-01-21T01:39:43.400Z,998.5
2018-01-21T01:40:45.809Z,998.5
2018-01-21T01:41:48.220Z,998.5
2018-01-21T01:42:50.621Z,998.6
2018-01-21T01:43:53.378Z,998.6
2018-01-21T01:44:55.780Z,998.6
2018-01-21T01:45:58.190Z,998.6
2018-01-21T01:47:00.593Z,998.6
2018-01-21T01:48:02.997Z,998.6
2018-01-21T01:49:05.409Z,998.6
2018-01-21T01:50:07.824Z,998.7
2018-01-21T01:51:10.223Z,998.6
2018-01-21T01:52:12.638Z,998.6
2018-01-21T01:53:15.055Z,998.6
2018-01-21T01:54:17.470Z,998.6
2018-01-21T01:55:19.877Z,998.7
2018-01-21T01:56:22.282Z,998.7
2018-01-21T01:57:24.688Z,998.7
2018-01-21T01:58:27.088Z,998.7
2018-01-21T01:59:29.502Z,998.7
2018-01-21T02:00:31.915Z,998.8
2018-01-21T02:01:34.323Z,998.8
2018-01-21T02:02:36.731Z,998.8
2018-01-21T02:03:39.147Z,998.8
2018-01-21T02:04:41.556Z,998.8
2018-01-21T02:05:43.965Z,998.8
2018-01-21T02:06:46.659Z,998.8
2018-01-21T02:07:49.060Z,998.8
2018-01-21T02:08:51.463Z,998.9
2018-01-21T02:09:53.874Z,998.8
2018-01-21T02:10:56.283Z,998.9
2018-01-21T02:11:58.685Z,999
2018-01-21T02:13:01.080Z,998.9
2018-01-21T02:14:03.476Z,999
2018-01-21T02:15:06.180Z,999
2018-01-21T02:16:08.855Z,999
2018-01-21T02:17:11.249Z,999
2018-01-21T02:18:13.657Z,999
2018-01-21T02:19:16.050Z,999
2018-01-21T02:20:18.456Z,999
2018-01-21T02:21:20.865Z,999.1
2018-01-21T02:22:23.255Z,999.1
2018-01-21T02:23:25.664Z,999.1
2018-01-21T02:24:28.049Z,999.2
2018-01-21T02:25:30.452Z,999.1
2018-01-21T02:26:32.848Z,999.2
2018-01-21T02:27:35.244Z,999.1
2018-01-21T02:28:37.934Z,999.1
2018-01-21T02:29:40.336Z,999.2
2018-01-21T02:30:43.025Z,999.2
2018-01-21T02:31:45.725Z,999.2
2018-01-21T02:32:48.128Z,999.2
2018-01-21T02:33:50.523Z,999.2
2018-01-21T02:34:52.925Z,999.2
2018-01-21T02:35:55.361Z,999.2
2018-01-21T02:36:58.042Z,999.2
2018-01-21T02:38:00.446Z,999.2
2018-01-21T02:39:02.852Z,999.2
2018-01-21T02:40:05.262Z,999.2
2018-01-21T02:41:07.679Z,999.2
2018-01-21T02:42:10.079Z,999.3
2018-01-21T02:43:12.770Z,999.3
2018-01-21T02:44:15.180Z,999.2
2018-01-21T02:45:17.898Z,999.3
2018-01-21T02:46:20.310Z,999.3
2018-01-21T02:47:22.724Z,999.3
2018-01-21T02:48:25.113Z,999.3
2018-01-21T02:49:27.539Z,999.3
2018-01-21T02:50:29.949Z,999.3
2018-01-21T02:51:32.357Z,999.3
2018-01-21T02:52:34.766Z,999.3
2018-01-21T02:53:37.165Z,999.3
2018-01-21T02:54:39.565Z,999.4
2018-01-21T02:55:41.985Z,999.4
2018-01-21T02:56:44.391Z,999.4
2018-01-21T02:57:46.809Z,999.4
2018-01-21T02:58:49.793Z,999.4
2018-01-21T02:59:52.214Z,999.5
2018-01-21T03:00:54.625Z,999.5
2018-01-21T03:01:57.030Z,999.5
2018-01-21T03:02:59.448Z,999.5
2018-01-21T03:04:02.415Z,999.5
2018-01-21T03:05:04.823Z,999.5
2018-01-21T03:06:07.239Z,999.5
2018-01-21T03:07:09.631Z,999.5
2018-01-21T03:08:12.036Z,999.5
2018-01-21T03:09:14.457Z,999.5
2018-01-21T03:10:17.141Z,999.5
2018-01-21T03:11:19.551Z,999.5
2018-01-21T03:12:22.248Z,999.6
2018-01-21T03:13:24.647Z,999.6
2018-01-21T03:14:27.076Z,999.5
2018-01-21T03:15:29.488Z,999.6
2018-01-21T03:16:31.895Z,999.6
2018-01-21T03:17:34.312Z,999.6
2018-01-21T03:18:36.714Z,999.6
2018-01-21T03:19:39.121Z,999.6
2018-01-21T03:20:41.527Z,999.6
2018-01-21T03:21:43.922Z,999.7
2018-01-21T03:22:46.327Z,999.7
2018-01-21T03:23:48.741Z,999.7
2018-01-21T03:24:51.432Z,999.7
2018-01-21T03:25:53.839Z,999.7
2018-01-21T03:26:56.257Z,999.7
2018-01-21T03:27:58.672Z,999.8
2018-01-21T03:29:01.078Z,999.8
2018-01-21T03:30:03.764Z,999.8
2018-01-21T03:31:06.185Z,999.8
2018-01-21T03:32:08.876Z,999.9
2018-01-21T03:33:11.274Z,999.9
2018-01-21T03:34:13.679Z,999.9
2018-01-21T03:35:16.094Z,999.9
2018-01-21T03:36:18.504Z,999.9
2018-01-21T03:37:20.925Z,999.9
2018-01-21T03:38:23.318Z,1000
2018-01-21T03:39:25.729Z,1000
2018-01-21T03:40:28.148Z,1000
2018-01-21T03:41:30.546Z,1000
2018-01-21T03:42:33.015Z,1000
2018-01-21T03:43:35.421Z,1000
2018-01-21T03:44:37.834Z,1000
2018-01-21T03:45:40.243Z,1000
2018-01-21T03:46:42.934Z,1000
2018-01-21T03:47:45.330Z,1000.1
2018-01-21T03:48:47.747Z,1000.1
2018-01-21T03:49:50.145Z,1000.1
2018-01-21T03:50:52.554Z,1000.1
2018-01-21T03:51:54.969Z,1000.1
2018-01-21T03:52:57.372Z,1000.1
2018-01-21T03:54:00.070Z,1000.1
2018-01-21T03:55:02.480Z,1000.2
2018-01-21T03:56:04.882Z,1000.1
2018-01-21T03:57:07.297Z,1000.2
2018-01-21T03:58:09.699Z,1000.2
2018-01-21T03:59:12.101Z,1000.2
2018-01-21T04:00:14.505Z,1000.3
2018-01-21T04:01:16.909Z,1000.2
2018-01-21T04:02:19.328Z,1000.3
2018-01-21T04:03:21.734Z,1000.3
2018-01-21T04:04:24.149Z,1000.3
2018-01-21T04:05:26.845Z,1000.3
2018-01-21T04:06:29.260Z,1000.4
2018-01-21T04:07:31.677Z,1000.4
2018-01-21T04:08:34.361Z,1000.4
2018-01-21T04:09:36.768Z,1000.5
2018-01-21T04:10:39.174Z,1000.5
2018-01-21T04:11:41.582Z,1000.5
2018-01-21T04:12:44.265Z,1000.5
2018-01-21T04:13:46.690Z,1000.6
2018-01-21T04:14:49.099Z,1000.6
2018-01-21T04:15:51.499Z,1000.6
2018-01-21T04:16:53.918Z,1000.6
2018-01-21T04:17:56.321Z,1000.7
2018-01-21T04:18:58.733Z,1000.6
2018-01-21T04:20:01.433Z,1000.6
2018-01-21T04:21:03.835Z,1000.6
2018-01-21T04:22:06.530Z,1000.6
2018-01-21T04:23:08.949Z,1000.6
2018-01-21T04:24:11.355Z,1000.6
2018-01-21T04:25:14.039Z,1000.6
2018-01-21T04:26:16.453Z,1000.7
2018-01-21T04:27:18.860Z,1000.7
2018-01-21T04:28:21.256Z,1000.7
2018-01-21T04:29:23.659Z,1000.7
2018-01-21T04:30:26.075Z,1000.7
2018-01-21T04:31:28.481Z,1000.7
2018-01-21T04:32:30.892Z,1000.8
2018-01-21T04:33:33.299Z,1000.8
2018-01-21T04:34:35.709Z,1000.8
2018-01-21T04:35:38.120Z,1000.8
2018-01-21T04:36:40.534Z,1000.8
2018-01-21T04:37:43.213Z,1000.8
2018-01-21T04:38:45.917Z,1000.8
2018-01-21T04:39:48.330Z,1000.8
2018-01-21T04:40:50.728Z,1000.9
2018-01-21T04:41:53.135Z,1000.8
2018-01-21T04:42:55.554Z,1000.9
2018-01-21T04:43:57.956Z,1000.9
2018-01-21T04:45:00.371Z,1000.9
2018-01-21T04:46:02.780Z,1000.9
2018-01-21T04:47:05.193Z,1000.9
2018-01-21T04:48:07.604Z,1000.9
2018-01-21T04:49:10.008Z,1000.9
2018-01-21T04:50:12.418Z,1001
2018-01-21T04:51:14.825Z,1001
2018-01-21T04:52:17.222Z,1001
2018-01-21T04:53:19.634Z,1001
2018-01-21T04:54:22.041Z,1001.1
2018-01-21T04:55:24.452Z,1001.1
2018-01-21T04:56:26.855Z,1001.1
2018-01-21T04:57:29.263Z,1001.1
2018-01-21T04:58:31.672Z,1001.1
2018-01-21T04:59:34.076Z,1001.2
2018-01-21T05:00:36.489Z,1001.2
2018-01-21T05:01:38.902Z,1001.2
2018-01-21T05:02:41.294Z,1001.2
2018-01-21T05:03:43.715Z,1001.3
2018-01-21T05:04:46.117Z,1001.2
2018-01-21T05:05:48.528Z,1001.3
2018-01-21T05:06:50.937Z,1001.3
2018-01-21T05:07:53.344Z,1001.3
2018-01-21T05:08:55.750Z,1001.3
2018-01-21T05:09:58.163Z,1001.3
2018-01-21T05:11:00.560Z,1001.3
2018-01-21T05:12:02.960Z,1001.3
2018-01-21T05:13:05.387Z,1001.3
2018-01-21T05:14:08.078Z,1001.3
2018-01-21T05:15:10.491Z,1001.4
2018-01-21T05:16:12.901Z,1001.3
2018-01-21T05:17:15.592Z,1001.3
2018-01-21T05:18:18.007Z,1001.4
2018-01-21T05:19:20.412Z,1001.4
2018-01-21T05:20:22.813Z,1001.4
2018-01-21T05:21:25.219Z,1001.4
2018-01-21T05:22:27.631Z,1001.4
2018-01-21T05:23:30.040Z,1001.4
2018-01-21T05:24:32.445Z,1001.4
2018-01-21T05:25:34.858Z,1001.4
2018-01-21T05:26:37.253Z,1001.4
2018-01-21T05:27:39.963Z,1001.4
2018-01-21T05:28:42.369Z,1001.4
2018-01-21T05:29:44.780Z,1001.4
2018-01-21T05:30:47.194Z,1001.4
2018-01-21T05:31:49.881Z,1001.4
2018-01-21T05:32:52.568Z,1001.4
2018-01-21T05:33:54.976Z,1001.4
2018-01-21T05:34:57.373Z,1001.5
2018-01-21T05:35:59.775Z,1001.5
2018-01-21T05:37:02.192Z,1001.5
2018-01-21T05:38:04.601Z,1001.5
2018-01-21T05:39:07.008Z,1001.5
2018-01-21T05:40:09.420Z,1001.6
2018-01-21T05:41:12.109Z,1001.6
2018-01-21T05:42:14.798Z,1001.6
2018-01-21T05:43:17.211Z,1001.7
2018-01-21T05:44:19.612Z,1001.7
2018-01-21T05:45:22.304Z,1001.7
2018-01-21T05:46:24.721Z,1001.7
2018-01-21T05:47:27.410Z,1001.7
2018-01-21T05:48:29.811Z,1001.7
2018-01-21T05:49:32.226Z,1001.8
2018-01-21T05:50:34.639Z,1001.8
2018-01-21T05:51:37.052Z,1001.8
2018-01-21T05:52:39.464Z,1001.8
2018-01-21T05:53:41.857Z,1001.8
2018-01-21T05:54:44.286Z,1001.8
2018-01-21T05:55:46.685Z,1001.8
2018-01-21T05:56:49.091Z,1001.9
2018-01-21T05:57:51.807Z,1001.9
2018-01-21T05:58:54.222Z,1001.9
2018-01-21T05:59:56.919Z,1001.9
2018-01-21T06:00:59.593Z,1002
2018-01-21T06:02:02.001Z,1001.9
2018-01-21T06:03:04.690Z,1002
2018-01-21T06:04:07.095Z,1002
2018-01-21T06:05:09.509Z,1002
2018-01-21T06:06:12.201Z,1002
2018-01-21T06:07:14.608Z,1002
2018-01-21T06:08:17.026Z,1002.1
2018-01-21T06:09:19.429Z,1002.1
2018-01-21T06:10:21.850Z,1002.1
2018-01-21T06:11:24.253Z,1002.1
2018-01-21T06:12:26.663Z,1002.2
2018-01-21T06:13:29.073Z,1002.1
2018-01-21T06:14:31.478Z,1002.2
2018-01-21T06:15:33.879Z,1002.2
2018-01-21T06:16:36.289Z,1002.2
2018-01-21T06:17:38.687Z,1002.2
2018-01-21T06:18:41.096Z,1002.2
2018-01-21T06:19:43.504Z,1002.2
2018-01-21T06:20:45.920Z,1002.2
2018-01-21T06:21:48.328Z,1002.2
2018-01-21T06:22:50.756Z,1002.3
2018-01-21T06:23:53.152Z,1002.3
2018-01-21T06:24:55.830Z,1002.3
2018-01-21T06:25:58.242Z,1002.4
2018-01-21T06:27:00.952Z,1002.4
2018-01-21T06:28:03.355Z,1002.4
2018-01-21T06:29:05.765Z,1002.4
2018-01-21T06:30:08.174Z,1002.4
2018-01-21T06:31:10.579Z,1002.5
2018-01-21T06:32:12.998Z,1002.5
2018-01-21T06:33:15.405Z,1002.5
2018-01-21T06:34:17.805Z,1002.5
2018-01-21T06:35:20.512Z,1002.5
2018-01-21T06:36:22.915Z,1002.6
2018-01-21T06:37:25.324Z,1002.6
2018-01-21T06:38:27.732Z,1002.6
2018-01-21T06:39:30.143Z,1002.6
2018-01-21T06:40:32.551Z,1002.6
2018-01-21T06:41:34.960Z,1002.7
2018-01-21T06:42:37.365Z,1002.7
2018-01-21T06:43:39.780Z,1002.7
2018-01-21T06:44:42.466Z,1002.8
2018-01-21T06:45:44.877Z,1002.8
2018-01-21T06:46:47.289Z,1002.8
2018-01-21T06:47:49.978Z,1002.9
2018-01-21T06:48:52.388Z,1002.9
2018-01-21T06:49:54.798Z,1002.9
2018-01-21T06:50:57.213Z,1002.9
2018-01-21T06:51:59.633Z,1003
2018-01-21T06:53:02.325Z,1003
2018-01-21T06:54:04.747Z,1003
2018-01-21T06:55:07.436Z,1003
2018-01-21T06:56:09.849Z,1003
2018-01-21T06:57:12.244Z,1003.1
2018-01-21T06:58:14.670Z,1003.1
2018-01-21T06:59:17.081Z,1003.1
2018-01-21T07:00:19.485Z,1003.2
2018-01-21T07:01:21.902Z,1003.1
2018-01-21T07:02:24.311Z,1003.2
2018-01-21T07:03:27.008Z,1003.2
2018-01-21T07:04:29.426Z,1003.2
2018-01-21T07:05:31.818Z,1003.2
2018-01-21T07:06:34.227Z,1003.3
2018-01-21T07:07:36.628Z,1003.3
2018-01-21T07:08:39.034Z,1003.3
2018-01-21T07:09:41.455Z,1003.3
2018-01-21T07:10:44.149Z,1003.4
2018-01-21T07:11:46.549Z,1003.4
2018-01-21T07:12:49.010Z,1003.4
2018-01-21T07:13:51.361Z,1003.4
2018-01-21T07:14:53.768Z,1003.4
2018-01-21T07:15:56.178Z,1003.5
2018-01-21T07:16:58.570Z,1003.5
2018-01-21T07:18:00.980Z,1003.5
2018-01-21T07:19:03.688Z,1003.5
2018-01-21T07:20:06.088Z,1003.5
2018-01-21T07:21:08.500Z,1003.6
2018-01-21T07:22:11.184Z,1003.6
2018-01-21T07:23:13.586Z,1003.6
2018-01-21T07:24:16.008Z,1003.6
2018-01-21T07:25:18.710Z,1003.6
2018-01-21T07:26:21.108Z,1003.7
2018-01-21T07:27:23.522Z,1003.7
2018-01-21T07:28:25.937Z,1003.7
2018-01-21T07:29:28.342Z,1003.7
2018-01-21T07:30:30.757Z,1003.8
2018-01-21T07:31:33.165Z,1003.8
2018-01-21T07:32:35.566Z,1003.8
2018-01-21T07:33:37.990Z,1003.8
2018-01-21T07:34:40.668Z,1003.9
2018-01-21T07:35:43.074Z,1003.9
2018-01-21T07:36:45.486Z,1003.9
2018-01-21T07:37:47.891Z,1003.9
2018-01-21T07:38:50.592Z,1004
2018-01-21T07:39:53.006Z,1004
2018-01-21T07:40:55.687Z,1004
2018-01-21T07:41:58.401Z,1004
2018-01-21T07:43:00.810Z,1004
2018-01-21T07:44:03.213Z,1004.1
2018-01-21T07:45:05.635Z,1004.1
2018-01-21T07:46:08.320Z,1004.1
2018-01-21T07:47:11.011Z,1004.1
2018-01-21T07:48:13.429Z,1004.1
2018-01-21T07:49:15.832Z,1004.1
2018-01-21T07:50:18.253Z,1004.1
2018-01-21T07:51:20.651Z,1004.1
2018-01-21T07:52:23.053Z,1004.2
2018-01-21T07:53:25.463Z,1004.2
2018-01-21T07:54:27.874Z,1004.2
2018-01-21T07:55:30.286Z,1004.2
2018-01-21T07:56:32.979Z,1004.3
2018-01-21T07:57:35.383Z,1004.3
2018-01-21T07:58:38.083Z,1004.3
2018-01-21T07:59:40.491Z,1004.3
2018-01-21T08:00:43.176Z,1004.3
2018-01-21T08:01:45.868Z,1004.4
2018-01-21T08:02:48.279Z,1004.4
2018-01-21T08:03:50.686Z,1004.4
2018-01-21T08:04:53.097Z,1004.4
2018-01-21T08:05:55.800Z,1004.5
2018-01-21T08:06:58.205Z,1004.5
2018-01-21T08:08:00.613Z,1004.5
2018-01-21T08:09:03.031Z,1004.5
2018-01-21T08:10:05.442Z,1004.5
2018-01-21T08:11:07.855Z,1004.5
2018-01-21T08:12:10.261Z,1004.5
2018-01-21T08:13:12.959Z,1004.6
2018-01-21T08:14:15.658Z,1004.6
2018-01-21T08:15:18.064Z,1004.6
2018-01-21T08:16:20.486Z,1004.7
2018-01-21T08:17:23.180Z,1004.7
2018-01-21T08:18:25.650Z,1004.7
2018-01-21T08:19:28.935Z,1004.7
2018-01-21T08:20:32.117Z,1004.8
2018-01-21T08:21:34.642Z,1004.8
2018-01-21T08:22:37.200Z,1004.8
2018-01-21T08:23:40.074Z,1004.8
2018-01-21T08:24:42.739Z,1004.8
2018-01-21T08:25:45.154Z,1004.8
2018-01-21T08:26:47.805Z,1004.8
2018-01-21T08:27:50.330Z,1004.8
2018-01-21T08:28:52.912Z,1004.8
2018-01-21T08:29:55.511Z,1004.8
2018-01-21T08:30:57.915Z,1004.9
2018-01-21T08:32:00.314Z,1004.8
2018-01-21T08:33:02.740Z,1004.9
2018-01-21T08:34:05.149Z,1004.9
2018-01-21T08:35:08.125Z,1004.9
2018-01-21T08:36:10.530Z,1004.9
2018-01-21T08:37:12.941Z,1004.9
2018-01-21T08:38:15.350Z,1005
2018-01-21T08:39:17.766Z,1005
2018-01-21T08:40:20.170Z,1005.1
2018-01-21T08:41:22.587Z,1005.1
2018-01-21T08:42:24.994Z,1005.1
2018-01-21T08:43:27.402Z,1005.2
2018-01-21T08:44:29.820Z,1005.1
2018-01-21T08:45:32.812Z,1005.2
2018-01-21T08:46:35.217Z,1005.2
2018-01-21T08:47:37.630Z,1005.2
2018-01-21T08:48:40.036Z,1005.2
2018-01-21T08:49:42.442Z,1005.2
2018-01-21T08:50:44.851Z,1005.3
2018-01-21T08:51:47.267Z,1005.3
2018-01-21T08:52:49.667Z,1005.3
2018-01-21T08:53:52.082Z,1005.3
2018-01-21T08:54:54.496Z,1005.3
2018-01-21T08:55:56.910Z,1005.4
2018-01-21T08:56:59.591Z,1005.3
2018-01-21T08:58:01.995Z,1005.3
2018-01-21T08:59:04.409Z,1005.3
2018-01-21T09:00:06.832Z,1005.4
2018-01-21T09:01:09.241Z,1005.4
2018-01-21T09:02:11.656Z,1005.3
2018-01-21T09:03:14.069Z,1005.3
2018-01-21T09:04:16.486Z,1005.3
2018-01-21T09:05:18.900Z,1005.3
2018-01-21T09:06:21.292Z,1005.4
2018-01-21T09:07:23.699Z,1005.4
2018-01-21T09:08:26.118Z,1005.4
2018-01-21T09:09:28.529Z,1005.4
2018-01-21T09:10:31.239Z,1005.5
2018-01-21T09:11:33.913Z,1005.5
2018-01-21T09:12:36.325Z,1005.5
2018-01-21T09:13:38.744Z,1005.5
2018-01-21T09:14:41.152Z,1005.5
2018-01-21T09:15:43.559Z,1005.5
2018-01-21T09:16:45.976Z,1005.5
2018-01-21T09:17:48.675Z,1005.6
2018-01-21T09:18:51.103Z,1005.6
2018-01-21T09:19:53.795Z,1005.6
2018-01-21T09:20:56.473Z,1005.6
2018-01-21T09:21:58.893Z,1005.6
2018-01-21T09:23:01.306Z,1005.6
2018-01-21T09:24:03.726Z,1005.6
2018-01-21T09:25:06.127Z,1005.6
2018-01-21T09:26:08.825Z,1005.7
2018-01-21T09:27:11.234Z,1005.6
2018-01-21T09:28:13.638Z,1005.7
2018-01-21T09:29:16.052Z,1005.7
2018-01-21T09:30:18.461Z,1005.7
2018-01-21T09:31:21.359Z,1005.8
2018-01-21T09:32:23.765Z,1005.9
2018-01-21T09:33:26.176Z,1005.9
2018-01-21T09:34:28.587Z,1005.9
2018-01-21T09:35:31.000Z,1006
2018-01-21T09:36:33.405Z,1006
2018-01-21T09:37:35.825Z,1006
2018-01-21T09:38:38.237Z,1006
2018-01-21T09:39:40.634Z,1006
2018-01-21T09:40:43.048Z,1006
2018-01-21T09:41:45.458Z,1006
2018-01-21T09:42:48.151Z,1006
2018-01-21T09:43:50.564Z,1006
2018-01-21T09:44:52.974Z,1006.1
2018-01-21T09:45:55.387Z,1006.1
2018-01-21T09:46:57.810Z,1006.1
2018-01-21T09:48:00.226Z,1006.2
2018-01-21T09:49:02.639Z,1006.1
2018-01-21T09:50:05.049Z,1006.2
2018-01-21T09:51:07.749Z,1006.2
2018-01-21T09:52:10.156Z,1006.3
2018-01-21T09:53:12.574Z,1006.2
2018-01-21T09:54:14.982Z,1006.2
2018-01-21T09:55:17.395Z,1006.3
2018-01-21T09:56:19.804Z,1006.2
2018-01-21T09:57:22.500Z,1006.2
2018-01-21T09:58:24.907Z,1006.2
2018-01-21T09:59:27.324Z,1006.3
2018-01-21T10:00:29.735Z,1006.3
2018-01-21T10:01:32.154Z,1006.3
2018-01-21T10:02:34.559Z,1006.3
2018-01-21T10:03:36.979Z,1006.3
2018-01-21T10:04:39.386Z,1006.3
2018-01-21T10:05:41.805Z,1006.3
2018-01-21T10:06:44.214Z,1006.3
2018-01-21T10:07:46.633Z,1006.4
2018-01-21T10:08:49.045Z,1006.4
2018-01-21T10:09:51.459Z,1006.4
2018-01-21T10:10:54.151Z,1006.4
2018-01-21T10:11:56.558Z,1006.4
2018-01-21T10:12:59.280Z,1006.5
2018-01-21T10:14:01.689Z,1006.5
2018-01-21T10:15:04.414Z,1006.5
2018-01-21T10:16:06.802Z,1006.5
2018-01-21T10:17:09.503Z,1006.5
2018-01-21T10:18:12.488Z,1006.5
2018-01-21T10:19:14.909Z,1006.4
2018-01-21T10:20:17.312Z,1006.5
2018-01-21T10:21:19.723Z,1006.5
2018-01-21T10:22:22.413Z,1006.5
2018-01-21T10:23:25.105Z,1006.5
2018-01-21T10:24:27.547Z,1006.5
2018-01-21T10:25:29.937Z,1006.5
2018-01-21T10:26:32.357Z,1006.5
2018-01-21T10:27:35.046Z,1006.5
2018-01-21T10:28:37.470Z,1006.6
2018-01-21T10:29:39.882Z,1006.6
2018-01-21T10:30:42.297Z,1006.6
2018-01-21T10:31:44.706Z,1006.7
2018-01-21T10:32:47.401Z,1006.7
2018-01-21T10:33:49.804Z,1006.7
2018-01-21T10:34:52.229Z,1006.8
2018-01-21T10:35:54.676Z,1006.8
2018-01-21T10:36:57.056Z,1006.8
2018-01-21T10:37:59.752Z,1006.8
2018-01-21T10:39:02.154Z,1006.8
2018-01-21T10:40:04.574Z,1006.8
2018-01-21T10:41:06.982Z,1006.8
2018-01-21T10:42:09.398Z,1006.8
2018-01-21T10:43:12.093Z,1006.9
2018-01-21T10:44:14.498Z,1006.9
2018-01-21T10:45:16.912Z,1006.8
2018-01-21T10:46:19.342Z,1006.9
2018-01-21T10:47:21.791Z,1006.9
2018-01-21T10:48:24.158Z,1007
2018-01-21T10:49:27.145Z,1006.9
2018-01-21T10:50:29.850Z,1006.9
2018-01-21T10:51:32.253Z,1006.9
2018-01-21T10:52:34.662Z,1006.9
2018-01-21T10:53:37.362Z,1006.9
2018-01-21T10:54:39.775Z,1006.9
2018-01-21T10:55:42.196Z,1006.9
2018-01-21T10:56:44.613Z,1006.9
2018-01-21T10:57:47.306Z,1006.9
2018-01-21T10:58:49.724Z,1007
2018-01-21T10:59:52.147Z,1007
2018-01-21T11:00:54.542Z,1007
2018-01-21T11:01:56.957Z,1007
2018-01-21T11:02:59.364Z,1007
2018-01-21T11:04:01.777Z,1007.1
2018-01-21T11:05:04.201Z,1007
2018-01-21T11:06:06.615Z,1007
2018-01-21T11:07:09.026Z,1007
2018-01-21T11:08:11.439Z,1007.1
2018-01-21T11:09:13.855Z,1007.1
2018-01-21T11:10:16.250Z,1007.1
2018-01-21T11:11:18.673Z,1007.1
2018-01-21T11:12:21.087Z,1007.1
2018-01-21T11:13:23.503Z,1007.1
2018-01-21T11:14:25.914Z,1007.1
2018-01-21T11:15:28.320Z,1007.1
2018-01-21T11:16:30.729Z,1007.2
2018-01-21T11:17:33.147Z,1007.2
2018-01-21T11:18:35.553Z,1007.2
2018-01-21T11:19:37.967Z,1007.2
2018-01-21T11:20:40.377Z,1007.2
2018-01-21T11:21:42.792Z,1007.2
2018-01-21T11:22:45.202Z,1007.1
2018-01-21T11:23:47.625Z,1007.2
2018-01-21T11:24:50.020Z,1007.2
2018-01-21T11:25:52.732Z,1007.1
2018-01-21T11:26:55.156Z,1007.2
2018-01-21T11:27:57.567Z,1007.2
2018-01-21T11:28:59.984Z,1007.2
2018-01-21T11:30:02.401Z,1007.1
2018-01-21T11:31:04.811Z,1007.2
2018-01-21T11:32:07.241Z,1007.2
2018-01-21T11:33:09.653Z,1007.2
2018-01-21T11:34:12.054Z,1007.2
2018-01-21T11:35:14.776Z,1007.2
2018-01-21T11:36:17.186Z,1007.2
2018-01-21T11:37:19.609Z,1007.3
2018-01-21T11:38:22.031Z,1007.3
2018-01-21T11:39:24.444Z,1007.3
2018-01-21T11:40:26.863Z,1007.3
2018-01-21T11:41:29.283Z,1007.3
2018-01-21T11:42:31.690Z,1007.3
2018-01-21T11:43:34.117Z,1007.4
2018-01-21T11:44:36.523Z,1007.4
2018-01-21T11:45:39.229Z,1007.4
2018-01-21T11:46:41.639Z,1007.4
2018-01-21T11:47:44.055Z,1007.4
2018-01-21T11:48:46.744Z,1007.4
2018-01-21T11:49:49.164Z,1007.5
2018-01-21T11:50:51.582Z,1007.4
2018-01-21T11:51:54.286Z,1007.4
2018-01-21T11:52:56.748Z,1007.4
2018-01-21T11:53:59.117Z,1007.4
2018-01-21T11:55:01.526Z,1007.4
2018-01-21T11:56:03.934Z,1007.3
2018-01-21T11:57:06.348Z,1007.4
2018-01-21T11:58:08.761Z,1007.4
2018-01-21T11:59:11.166Z,1007.5
2018-01-21T12:00:13.584Z,1007.4
2018-01-21T12:01:16.006Z,1007.5
2018-01-21T12:02:18.419Z,1007.5
2018-01-21T12:03:21.118Z,1007.4
2018-01-21T12:04:23.536Z,1007.4
2018-01-21T12:05:25.954Z,1007.4
2018-01-21T12:06:28.374Z,1007.5
2018-01-21T12:07:30.783Z,1007.5
2018-01-21T12:08:33.198Z,1007.5
2018-01-21T12:09:35.908Z,1007.5
2018-01-21T12:10:38.315Z,1007.5
2018-01-21T12:11:40.726Z,1007.5
2018-01-21T12:12:43.145Z,1007.5
2018-01-21T12:13:45.556Z,1007.5
2018-01-21T12:14:47.969Z,1007.5
2018-01-21T12:15:50.386Z,1007.6
2018-01-21T12:16:52.784Z,1007.5
2018-01-21T12:17:55.196Z,1007.5
2018-01-21T12:18:57.919Z,1007.5
2018-01-21T12:20:00.325Z,1007.6
2018-01-21T12:21:02.739Z,1007.7
2018-01-21T12:22:05.158Z,1007.6
2018-01-21T12:23:07.581Z,1007.7
2018-01-21T12:24:09.977Z,1007.6
2018-01-21T12:25:12.391Z,1007.6
2018-01-21T12:26:14.802Z,1007.7
2018-01-21T12:27:17.217Z,1007.6
2018-01-21T12:28:19.635Z,1007.6
2018-01-21T12:29:22.328Z,1007.6
2018-01-21T12:30:24.985Z,1007.7
2018-01-21T12:31:27.584Z,1007.6
2018-01-21T12:32:29.953Z,1007.6
2018-01-21T12:33:32.371Z,1007.6
2018-01-21T12:34:34.792Z,1007.6
2018-01-21T12:35:37.203Z,1007.7
2018-01-21T12:36:39.616Z,1007.7
2018-01-21T12:37:42.030Z,1007.7
2018-01-21T12:38:44.442Z,1007.7
2018-01-21T12:39:46.860Z,1007.7
2018-01-21T12:40:49.270Z,1007.8
2018-01-21T12:41:51.677Z,1007.8
2018-01-21T12:42:54.559Z,1007.8
2018-01-21T12:43:56.974Z,1007.8
2018-01-21T12:44:59.389Z,1007.8
2018-01-21T12:46:01.801Z,1007.8
2018-01-21T12:47:04.215Z,1007.8
2018-01-21T12:48:06.629Z,1007.8
2018-01-21T12:49:09.326Z,1007.8
2018-01-21T12:50:11.772Z,1007.8
2018-01-21T12:51:14.801Z,1007.8
2018-01-21T12:52:17.221Z,1007.8
2018-01-21T12:53:19.637Z,1007.8
2018-01-21T12:54:22.042Z,1007.8
2018-01-21T12:55:25.021Z,1007.8
2018-01-21T12:56:27.447Z,1007.8
2018-01-21T12:57:29.851Z,1007.8
2018-01-21T12:58:32.270Z,1007.7
2018-01-21T12:59:34.691Z,1007.8
2018-01-21T13:00:37.105Z,1007.7
2018-01-21T13:01:39.510Z,1007.8
2018-01-21T13:02:41.927Z,1007.8
2018-01-21T13:03:44.337Z,1007.8
2018-01-21T13:04:46.757Z,1007.9
2018-01-21T13:05:49.170Z,1007.8
2018-01-21T13:06:51.570Z,1007.9
2018-01-21T13:07:53.983Z,1007.9
2018-01-21T13:08:56.396Z,1007.9
2018-01-21T13:09:58.811Z,1007.9
2018-01-21T13:11:01.227Z,1007.9